TRA6215 EHEH-GCTS
Flight info
| Callsign | TRA6215 |
|---|---|
| Flight time | N/A |
| Altitude | 35000 |
| Route | WOODY N872 CIV DCT KOVIN DCT DUCRA UM728 RESMI UN857 DISAK DCT ARKIP DCT ARNAV DCT LMG/N0455F370 DCT UVELI DCT OSMOB DCT VAVIX DCT BTZ DCT URUNA DCT SSN DCT VRA DCT NEA L14 ADINO DCT RAKOD DCT ELVAR DCT ALAGU DCT MARIM DCT VFA DCT OSLAD UR724 IBALU UN857 TERTO |
| Aircraft | B738/M-SDE2E3FGHIRWXY/LB1 |
Departure
| Time | N/A |
|---|---|
| Airport | Eindhoven Airport (EHEH) |
Arrival
| Time | 2026-04-28 23:00 |
|---|---|
| Airport | Tenerife Sur Airport (GCTS) |
| Time | Latitude | Longitude | Altitude | Speed | Heading |
|---|---|---|---|---|---|
| 2026-04-28 19:25 | 46.02913 | 1.14042 | 36968 ft | 419 kts | 204° |
| 2026-04-28 19:25 | 45.97445 | 1.11099 | 36965 ft | 419 kts | 204° |
| 2026-04-28 19:26 | 45.91984 | 1.08164 | 36970 ft | 419 kts | 204° |
| 2026-04-28 19:26 | 45.86517 | 1.05232 | 36952 ft | 419 kts | 204° |
| 2026-04-28 19:27 | 45.81209 | 1.01855 | 36938 ft | 415 kts | 214° |
| 2026-04-28 19:27 | 45.76664 | 0.96819 | 36959 ft | 412 kts | 222° |
| 2026-04-28 19:28 | 45.72305 | 0.91527 | 36972 ft | 413 kts | 222° |
| 2026-04-28 19:28 | 45.67901 | 0.86222 | 36957 ft | 414 kts | 221° |
| 2026-04-28 19:29 | 45.64221 | 0.81823 | 36945 ft | 416 kts | 221° |
| 2026-04-28 19:29 | 45.59030 | 0.75644 | 36953 ft | 417 kts | 221° |
| 2026-04-28 19:30 | 45.54565 | 0.70345 | 36945 ft | 417 kts | 221° |
| 2026-04-28 19:30 | 45.50103 | 0.65059 | 36952 ft | 418 kts | 221° |
| 2026-04-28 19:31 | 45.45658 | 0.59805 | 36940 ft | 418 kts | 221° |
| 2026-04-28 19:31 | 45.41181 | 0.54524 | 36950 ft | 418 kts | 221° |
| 2026-04-28 19:32 | 45.36698 | 0.49247 | 36932 ft | 418 kts | 221° |
| 2026-04-28 19:32 | 45.32220 | 0.43987 | 36950 ft | 417 kts | 221° |
| 2026-04-28 19:33 | 45.27771 | 0.38772 | 36963 ft | 417 kts | 221° |
| 2026-04-28 19:33 | 45.23290 | 0.33530 | 36971 ft | 417 kts | 221° |
| 2026-04-28 19:34 | 45.18813 | 0.28304 | 36932 ft | 417 kts | 221° |
| 2026-04-28 19:34 | 45.14336 | 0.23088 | 36964 ft | 416 kts | 221° |
| 2026-04-28 19:35 | 45.09850 | 0.17872 | 36968 ft | 416 kts | 221° |
| 2026-04-28 19:35 | 45.05365 | 0.12667 | 36970 ft | 417 kts | 221° |
| 2026-04-28 19:36 | 45.00875 | 0.07473 | 36950 ft | 417 kts | 221° |
| 2026-04-28 19:36 | 44.96386 | 0.02289 | 36962 ft | 417 kts | 221° |
| 2026-04-28 19:37 | 44.92651 | -0.02018 | 36963 ft | 418 kts | 221° |
| 2026-04-28 19:37 | 44.87409 | -0.08051 | 36963 ft | 418 kts | 221° |
| 2026-04-28 19:38 | 44.82889 | -0.13243 | 36951 ft | 419 kts | 221° |
| 2026-04-28 19:38 | 44.78357 | -0.18436 | 36965 ft | 419 kts | 221° |
| 2026-04-28 19:39 | 44.73829 | -0.23615 | 36953 ft | 420 kts | 221° |
| 2026-04-28 19:39 | 44.69299 | -0.28788 | 36959 ft | 420 kts | 221° |
| 2026-04-28 19:40 | 44.64754 | -0.33947 | 36959 ft | 420 kts | 219° |
| 2026-04-28 19:40 | 44.59964 | -0.38687 | 36960 ft | 421 kts | 217° |
| 2026-04-28 19:41 | 44.55108 | -0.43288 | 36966 ft | 421 kts | 217° |
| 2026-04-28 19:41 | 44.50263 | -0.47908 | 36949 ft | 421 kts | 217° |
| 2026-04-28 19:42 | 44.45428 | -0.52543 | 36969 ft | 421 kts | 217° |
| 2026-04-28 19:42 | 44.41410 | -0.56396 | 36935 ft | 421 kts | 217° |
| 2026-04-28 19:43 | 44.35799 | -0.61767 | 36956 ft | 421 kts | 217° |
| 2026-04-28 19:43 | 44.30960 | -0.66387 | 36962 ft | 420 kts | 217° |
| 2026-04-28 19:44 | 44.26134 | -0.71022 | 36951 ft | 421 kts | 218° |
| 2026-04-28 19:44 | 44.21417 | -0.75831 | 36959 ft | 420 kts | 219° |
| 2026-04-28 19:45 | 44.16708 | -0.80686 | 36949 ft | 421 kts | 219° |
| 2026-04-28 19:45 | 44.12020 | -0.85483 | 36959 ft | 420 kts | 218° |
| 2026-04-28 19:46 | 44.07299 | -0.90285 | 36950 ft | 421 kts | 218° |
| 2026-04-28 19:46 | 44.02569 | -0.95079 | 36954 ft | 421 kts | 218° |
| 2026-04-28 19:47 | 43.97841 | -0.99862 | 36941 ft | 420 kts | 218° |
| 2026-04-28 19:47 | 43.93108 | -1.04640 | 36936 ft | 420 kts | 218° |
| 2026-04-28 19:48 | 43.88378 | -1.09407 | 36927 ft | 421 kts | 218° |
| 2026-04-28 19:48 | 43.83636 | -1.14175 | 36921 ft | 421 kts | 218° |
| 2026-04-28 19:49 | 43.78900 | -1.18928 | 36923 ft | 420 kts | 218° |
| 2026-04-28 19:49 | 43.74156 | -1.23680 | 36914 ft | 420 kts | 218° |
| 2026-04-28 19:50 | 43.67086 | -1.30743 | 36928 ft | 419 kts | 218° |
| 2026-04-28 19:51 | 43.62353 | -1.35460 | 36919 ft | 419 kts | 218° |
| 2026-04-28 19:51 | 43.57621 | -1.40168 | 36940 ft | 418 kts | 218° |
| 2026-04-28 19:52 | 43.52896 | -1.44861 | 36937 ft | 418 kts | 218° |
| 2026-04-28 19:52 | 43.48209 | -1.49608 | 36919 ft | 417 kts | 223° |
| 2026-04-28 19:53 | 43.44415 | -1.55494 | 36912 ft | 414 kts | 237° |
| 2026-04-28 19:53 | 43.41265 | -1.62112 | 36906 ft | 414 kts | 237° |
| 2026-04-28 19:54 | 43.38084 | -1.68710 | 36913 ft | 415 kts | 237° |
| 2026-04-28 19:54 | 43.34866 | -1.75297 | 36920 ft | 415 kts | 237° |
| 2026-04-28 19:55 | 43.31642 | -1.81888 | 36925 ft | 416 kts | 237° |
| 2026-04-28 19:55 | 43.28278 | -1.88306 | 36943 ft | 417 kts | 233° |
| 2026-04-28 19:56 | 43.24738 | -1.94649 | 36943 ft | 419 kts | 233° |
| 2026-04-28 19:56 | 43.21191 | -2.01001 | 36959 ft | 419 kts | 233° |
| 2026-04-28 19:57 | 43.17651 | -2.07376 | 36959 ft | 420 kts | 233° |
| 2026-04-28 19:57 | 43.14132 | -2.13722 | 36948 ft | 421 kts | 233° |
| 2026-04-28 19:58 | 43.10584 | -2.20110 | 36941 ft | 421 kts | 233° |
| 2026-04-28 19:58 | 43.07035 | -2.26487 | 36945 ft | 422 kts | 233° |
| 2026-04-28 19:59 | 43.03475 | -2.32867 | 36949 ft | 421 kts | 233° |
| 2026-04-28 19:59 | 42.99925 | -2.39217 | 36945 ft | 420 kts | 234° |
| 2026-04-28 20:00 | 42.96383 | -2.45540 | 36925 ft | 419 kts | 233° |
| 2026-04-28 20:00 | 42.92847 | -2.51837 | 36927 ft | 418 kts | 233° |
| 2026-04-28 20:01 | 42.89332 | -2.58085 | 36933 ft | 417 kts | 233° |
| 2026-04-28 20:01 | 42.85808 | -2.64336 | 36946 ft | 415 kts | 233° |
| 2026-04-28 20:02 | 42.83028 | -2.69257 | 36945 ft | 415 kts | 233° |
| 2026-04-28 20:02 | 42.79509 | -2.75478 | 36935 ft | 414 kts | 233° |
| 2026-04-28 20:03 | 42.75989 | -2.81687 | 36935 ft | 414 kts | 233° |
| 2026-04-28 20:03 | 42.72473 | -2.87881 | 36952 ft | 413 kts | 233° |
| 2026-04-28 20:04 | 42.68995 | -2.94121 | 36944 ft | 414 kts | 233° |
| 2026-04-28 20:04 | 42.65547 | -3.00334 | 36928 ft | 414 kts | 233° |
| 2026-04-28 20:05 | 42.62064 | -3.06590 | 36940 ft | 414 kts | 233° |
| 2026-04-28 20:05 | 42.58576 | -3.12834 | 36937 ft | 415 kts | 233° |
| 2026-04-28 20:06 | 42.55071 | -3.19091 | 36932 ft | 416 kts | 233° |
| 2026-04-28 20:06 | 42.51588 | -3.25296 | 36931 ft | 416 kts | 233° |
| 2026-04-28 20:07 | 42.48083 | -3.31528 | 36923 ft | 416 kts | 233° |
| 2026-04-28 20:07 | 42.44567 | -3.37765 | 36925 ft | 416 kts | 233° |
| 2026-04-28 20:08 | 42.41047 | -3.43997 | 36941 ft | 416 kts | 233° |
| 2026-04-28 20:08 | 42.37525 | -3.50218 | 36959 ft | 416 kts | 233° |
| 2026-04-28 20:09 | 42.33994 | -3.56445 | 36938 ft | 416 kts | 233° |
| 2026-04-28 20:09 | 42.30491 | -3.62609 | 36932 ft | 416 kts | 233° |
| 2026-04-28 20:10 | 42.26961 | -3.68807 | 36946 ft | 416 kts | 233° |
| 2026-04-28 20:10 | 42.23429 | -3.74995 | 36919 ft | 416 kts | 233° |
| 2026-04-28 20:11 | 42.20492 | -3.80133 | 36912 ft | 416 kts | 233° |
| 2026-04-28 20:11 | 42.16957 | -3.86304 | 36922 ft | 416 kts | 233° |
| 2026-04-28 20:12 | 42.12841 | -3.93473 | 36894 ft | 415 kts | 233° |
| 2026-04-28 20:12 | 42.09881 | -3.98621 | 36906 ft | 415 kts | 233° |
| 2026-04-28 20:13 | 42.06342 | -4.04765 | 36898 ft | 415 kts | 233° |
| 2026-04-28 20:13 | 42.02781 | -4.10824 | 36891 ft | 416 kts | 229° |
| 2026-04-28 20:14 | 41.98501 | -4.16049 | 36971 ft | 415 kts | 222° |
| 2026-04-28 20:14 | 41.94109 | -4.21121 | 36922 ft | 416 kts | 222° |
| 2026-04-28 20:15 | 41.89720 | -4.26221 | 36907 ft | 417 kts | 222° |
| 2026-04-28 20:15 | 41.85342 | -4.31325 | 36911 ft | 417 kts | 222° |
| 2026-04-28 20:16 | 41.80964 | -4.36428 | 36912 ft | 416 kts | 222° |
| 2026-04-28 20:16 | 41.76586 | -4.41520 | 36904 ft | 416 kts | 222° |
| 2026-04-28 20:17 | 41.72211 | -4.46601 | 36894 ft | 417 kts | 222° |
| 2026-04-28 20:17 | 41.67857 | -4.51646 | 36889 ft | 416 kts | 222° |
| 2026-04-28 20:18 | 41.63479 | -4.56710 | 36903 ft | 415 kts | 222° |
| 2026-04-28 20:18 | 41.59100 | -4.61765 | 36901 ft | 415 kts | 221° |
| 2026-04-28 20:19 | 41.54726 | -4.66806 | 36902 ft | 415 kts | 221° |
| 2026-04-28 20:19 | 41.50353 | -4.71836 | 36900 ft | 415 kts | 221° |
| 2026-04-28 20:20 | 41.46006 | -4.76827 | 36891 ft | 414 kts | 221° |
| 2026-04-28 20:20 | 41.41628 | -4.81845 | 36896 ft | 414 kts | 221° |
| 2026-04-28 20:21 | 41.37264 | -4.86838 | 36900 ft | 414 kts | 221° |
| 2026-04-28 20:21 | 41.32888 | -4.91838 | 36900 ft | 414 kts | 221° |
| 2026-04-28 20:22 | 41.28510 | -4.96827 | 36903 ft | 414 kts | 221° |
| 2026-04-28 20:22 | 41.24153 | -5.01774 | 36897 ft | 414 kts | 221° |
| 2026-04-28 20:23 | 41.19763 | -5.06747 | 36903 ft | 414 kts | 221° |
| 2026-04-28 20:23 | 41.15373 | -5.11713 | 36893 ft | 415 kts | 221° |
| 2026-04-28 20:24 | 41.10972 | -5.16684 | 36916 ft | 415 kts | 221° |
| 2026-04-28 20:24 | 41.06568 | -5.21651 | 36903 ft | 416 kts | 221° |
| 2026-04-28 20:25 | 41.02144 | -5.26630 | 36911 ft | 417 kts | 221° |
| 2026-04-28 20:25 | 40.97744 | -5.31574 | 36910 ft | 417 kts | 221° |
| 2026-04-28 20:26 | 40.93307 | -5.36550 | 36913 ft | 418 kts | 220° |
| 2026-04-28 20:26 | 40.88864 | -5.41524 | 36916 ft | 419 kts | 220° |
| 2026-04-28 20:27 | 40.84410 | -5.46500 | 36907 ft | 419 kts | 220° |
| 2026-04-28 20:27 | 40.79952 | -5.51473 | 36919 ft | 419 kts | 220° |
| 2026-04-28 20:28 | 40.75491 | -5.56440 | 36905 ft | 419 kts | 220° |
| 2026-04-28 20:28 | 40.71069 | -5.61354 | 36907 ft | 418 kts | 220° |
| 2026-04-28 20:29 | 40.66627 | -5.66283 | 36903 ft | 417 kts | 220° |
| 2026-04-28 20:29 | 40.62199 | -5.71187 | 36911 ft | 415 kts | 219° |
| 2026-04-28 20:30 | 40.57780 | -5.76075 | 36898 ft | 414 kts | 219° |
| 2026-04-28 20:30 | 40.53370 | -5.80940 | 36908 ft | 413 kts | 219° |
| 2026-04-28 20:31 | 40.48967 | -5.85799 | 36905 ft | 413 kts | 219° |
| 2026-04-28 20:31 | 40.44572 | -5.90647 | 36913 ft | 413 kts | 219° |
| 2026-04-28 20:32 | 40.40171 | -5.95495 | 36896 ft | 413 kts | 219° |
| 2026-04-28 20:32 | 40.35789 | -6.00312 | 36908 ft | 413 kts | 219° |
| 2026-04-28 20:33 | 40.31379 | -6.05151 | 36900 ft | 413 kts | 219° |
| 2026-04-28 20:33 | 40.26963 | -6.09989 | 36900 ft | 414 kts | 218° |
| 2026-04-28 20:34 | 40.22537 | -6.14829 | 36889 ft | 415 kts | 218° |
| 2026-04-28 20:34 | 40.18100 | -6.19672 | 36908 ft | 416 kts | 218° |
| 2026-04-28 20:35 | 40.13647 | -6.24526 | 36899 ft | 417 kts | 218° |
| 2026-04-28 20:35 | 40.09198 | -6.29366 | 36883 ft | 419 kts | 218° |
| 2026-04-28 20:36 | 40.04714 | -6.34238 | 36891 ft | 419 kts | 218° |
| 2026-04-28 20:36 | 40.00214 | -6.39113 | 36876 ft | 421 kts | 218° |
| 2026-04-28 20:37 | 39.95696 | -6.43986 | 36895 ft | 422 kts | 218° |
| 2026-04-28 20:37 | 39.91158 | -6.48872 | 36891 ft | 423 kts | 218° |
| 2026-04-28 20:38 | 39.86606 | -6.53769 | 36890 ft | 424 kts | 218° |
| 2026-04-28 20:38 | 39.82078 | -6.58633 | 36868 ft | 425 kts | 218° |
| 2026-04-28 20:39 | 39.77510 | -6.63529 | 36875 ft | 426 kts | 218° |
| 2026-04-28 20:39 | 39.72931 | -6.68414 | 36884 ft | 425 kts | 218° |
| 2026-04-28 20:40 | 39.68344 | -6.73296 | 36874 ft | 426 kts | 218° |
| 2026-04-28 20:40 | 39.63759 | -6.78170 | 36884 ft | 426 kts | 218° |
| 2026-04-28 20:41 | 39.59178 | -6.83033 | 36882 ft | 426 kts | 218° |
| 2026-04-28 20:41 | 39.54623 | -6.87861 | 36876 ft | 426 kts | 218° |
| 2026-04-28 20:42 | 39.50030 | -6.92720 | 36883 ft | 426 kts | 218° |
| 2026-04-28 20:42 | 39.45442 | -6.97565 | 36879 ft | 426 kts | 218° |
| 2026-04-28 20:43 | 39.40851 | -7.02406 | 36878 ft | 425 kts | 218° |
| 2026-04-28 20:43 | 39.36263 | -7.07234 | 36883 ft | 425 kts | 218° |
| 2026-04-28 20:44 | 39.31670 | -7.12061 | 36882 ft | 425 kts | 218° |
| 2026-04-28 20:44 | 39.27082 | -7.16874 | 36879 ft | 425 kts | 218° |
| 2026-04-28 20:45 | 39.22333 | -7.21398 | 36844 ft | 425 kts | 208° |
| 2026-04-28 20:45 | 39.19713 | -7.23026 | 36947 ft | 423 kts | 201° |
| 2026-04-28 20:45 | 39.16898 | -7.24179 | 36877 ft | 424 kts | 195° |
| 2026-04-28 20:46 | 39.11206 | -7.26124 | 36877 ft | 425 kts | 195° |
| 2026-04-28 20:46 | 39.05477 | -7.28077 | 36886 ft | 425 kts | 195° |
| 2026-04-28 20:47 | 38.99756 | -7.30058 | 36889 ft | 426 kts | 196° |
| 2026-04-28 20:47 | 38.94029 | -7.32055 | 36881 ft | 426 kts | 196° |
| 2026-04-28 20:48 | 38.88297 | -7.34054 | 36873 ft | 427 kts | 196° |
| 2026-04-28 20:48 | 38.82563 | -7.36051 | 36887 ft | 427 kts | 196° |
| 2026-04-28 20:49 | 38.76863 | -7.38031 | 36901 ft | 427 kts | 196° |
| 2026-04-28 20:49 | 38.71119 | -7.40024 | 36891 ft | 427 kts | 196° |
| 2026-04-28 20:50 | 38.65384 | -7.42010 | 36896 ft | 427 kts | 196° |
| 2026-04-28 20:50 | 38.59644 | -7.43995 | 36902 ft | 427 kts | 196° |
| 2026-04-28 20:51 | 38.53902 | -7.45977 | 36887 ft | 427 kts | 196° |
| 2026-04-28 20:51 | 38.48158 | -7.47956 | 36901 ft | 427 kts | 196° |
| 2026-04-28 20:52 | 38.42466 | -7.49914 | 36896 ft | 427 kts | 196° |
| 2026-04-28 20:52 | 38.36730 | -7.51885 | 36897 ft | 426 kts | 196° |
| 2026-04-28 20:53 | 38.28130 | -7.54833 | 36895 ft | 426 kts | 196° |
| 2026-04-28 20:53 | 38.22401 | -7.56792 | 36900 ft | 426 kts | 196° |
| 2026-04-28 20:54 | 38.16670 | -7.58750 | 36900 ft | 426 kts | 196° |
| 2026-04-28 20:54 | 38.10945 | -7.60703 | 36897 ft | 427 kts | 196° |
| 2026-04-28 20:55 | 38.05203 | -7.62658 | 36895 ft | 427 kts | 196° |
| 2026-04-28 20:55 | 37.99457 | -7.64613 | 36896 ft | 428 kts | 196° |
| 2026-04-28 20:56 | 37.93706 | -7.66567 | 36884 ft | 428 kts | 196° |
| 2026-04-28 20:56 | 37.87976 | -7.68511 | 36899 ft | 429 kts | 196° |
| 2026-04-28 20:57 | 37.82205 | -7.70466 | 36909 ft | 430 kts | 196° |
| 2026-04-28 20:57 | 37.76425 | -7.72420 | 36902 ft | 431 kts | 196° |
| 2026-04-28 20:58 | 37.70628 | -7.74378 | 36906 ft | 431 kts | 196° |
| 2026-04-28 20:58 | 37.64824 | -7.76334 | 36903 ft | 432 kts | 196° |
| 2026-04-28 20:59 | 37.59995 | -7.77960 | 36906 ft | 432 kts | 196° |
| 2026-04-28 20:59 | 37.54174 | -7.79916 | 36901 ft | 432 kts | 196° |
| 2026-04-28 21:00 | 37.48346 | -7.81872 | 36907 ft | 432 kts | 196° |
| 2026-04-28 21:00 | 37.42533 | -7.83820 | 36895 ft | 432 kts | 196° |
| 2026-04-28 21:01 | 37.36762 | -7.85749 | 36914 ft | 432 kts | 196° |
| 2026-04-28 21:01 | 37.30954 | -7.87685 | 36893 ft | 432 kts | 196° |
| 2026-04-28 21:02 | 37.25143 | -7.89621 | 36903 ft | 432 kts | 196° |
| 2026-04-28 21:02 | 37.19327 | -7.91555 | 36869 ft | 433 kts | 197° |
| 2026-04-28 21:03 | 37.13505 | -7.93488 | 36882 ft | 433 kts | 197° |
| 2026-04-28 21:03 | 37.07685 | -7.95419 | 36895 ft | 433 kts | 197° |
| 2026-04-28 21:04 | 37.01851 | -7.97350 | 36876 ft | 434 kts | 197° |
| 2026-04-28 21:04 | 36.96008 | -7.99271 | 36872 ft | 434 kts | 197° |
| 2026-04-28 21:05 | 36.90160 | -8.01184 | 36886 ft | 434 kts | 197° |
| 2026-04-28 21:05 | 36.84342 | -8.03085 | 36888 ft | 435 kts | 197° |
| 2026-04-28 21:06 | 36.78439 | -8.05013 | 36885 ft | 436 kts | 197° |
| 2026-04-28 21:06 | 36.72599 | -8.06917 | 36895 ft | 437 kts | 197° |
| 2026-04-28 21:07 | 36.66711 | -8.08834 | 36886 ft | 438 kts | 197° |
| 2026-04-28 21:07 | 36.60815 | -8.10750 | 36900 ft | 438 kts | 197° |
| 2026-04-28 21:08 | 36.54910 | -8.12667 | 36891 ft | 439 kts | 197° |
| 2026-04-28 21:08 | 36.49006 | -8.14580 | 36894 ft | 439 kts | 197° |
| 2026-04-28 21:09 | 36.43085 | -8.16495 | 36887 ft | 439 kts | 197° |
| 2026-04-28 21:09 | 36.37172 | -8.18405 | 36905 ft | 439 kts | 197° |
| 2026-04-28 21:10 | 36.31259 | -8.20312 | 36903 ft | 440 kts | 197° |
| 2026-04-28 21:10 | 36.25331 | -8.22221 | 36911 ft | 440 kts | 197° |
| 2026-04-28 21:11 | 36.19445 | -8.24113 | 36891 ft | 440 kts | 197° |
| 2026-04-28 21:11 | 36.13515 | -8.26017 | 36920 ft | 440 kts | 197° |
| 2026-04-28 21:12 | 36.07579 | -8.27919 | 36898 ft | 441 kts | 197° |
| 2026-04-28 21:12 | 36.01621 | -8.29827 | 36925 ft | 441 kts | 197° |
| 2026-04-28 21:13 | 35.95672 | -8.31727 | 36901 ft | 442 kts | 197° |
| 2026-04-28 21:13 | 35.89708 | -8.33621 | 36925 ft | 442 kts | 197° |
| 2026-04-28 21:14 | 35.83779 | -8.35499 | 36910 ft | 444 kts | 198° |
| 2026-04-28 21:14 | 35.77785 | -8.37398 | 36917 ft | 446 kts | 198° |
| 2026-04-28 21:15 | 35.71732 | -8.39312 | 36935 ft | 448 kts | 198° |
| 2026-04-28 21:15 | 35.65668 | -8.41227 | 36921 ft | 451 kts | 198° |
| 2026-04-28 21:16 | 35.59611 | -8.43136 | 36933 ft | 453 kts | 198° |
| 2026-04-28 21:16 | 35.53492 | -8.45061 | 36926 ft | 454 kts | 198° |
| 2026-04-28 21:17 | 35.47361 | -8.46987 | 36929 ft | 454 kts | 198° |
| 2026-04-28 21:17 | 35.41242 | -8.48906 | 36921 ft | 454 kts | 198° |
| 2026-04-28 21:18 | 35.35119 | -8.50824 | 36932 ft | 453 kts | 198° |
| 2026-04-28 21:18 | 35.29012 | -8.52734 | 36935 ft | 453 kts | 198° |
| 2026-04-28 21:19 | 35.22898 | -8.54644 | 36936 ft | 452 kts | 198° |
| 2026-04-28 21:19 | 35.16801 | -8.56545 | 36922 ft | 452 kts | 198° |
| 2026-04-28 21:20 | 35.10751 | -8.58428 | 36944 ft | 452 kts | 198° |
| 2026-04-28 21:20 | 35.04660 | -8.60321 | 36934 ft | 452 kts | 198° |
| 2026-04-28 21:21 | 34.98552 | -8.62217 | 36943 ft | 452 kts | 198° |
| 2026-04-28 21:21 | 34.92451 | -8.64108 | 36917 ft | 453 kts | 198° |
| 2026-04-28 21:22 | 34.86338 | -8.65999 | 36946 ft | 453 kts | 198° |
| 2026-04-28 21:22 | 34.81250 | -8.67572 | 36936 ft | 454 kts | 198° |
| 2026-04-28 21:23 | 34.74085 | -8.69782 | 36958 ft | 455 kts | 198° |
| 2026-04-28 21:23 | 34.67927 | -8.71679 | 36937 ft | 456 kts | 198° |
| 2026-04-28 21:24 | 34.61761 | -8.73575 | 36966 ft | 457 kts | 198° |
| 2026-04-28 21:24 | 34.55610 | -8.75464 | 36950 ft | 459 kts | 198° |
| 2026-04-28 21:25 | 34.49407 | -8.77367 | 36952 ft | 461 kts | 198° |
| 2026-04-28 21:25 | 34.43454 | -8.80053 | 36973 ft | 453 kts | 213° |
| 2026-04-28 21:26 | 34.38397 | -8.84481 | 37033 ft | 447 kts | 223° |
| 2026-04-28 21:26 | 34.33547 | -8.89243 | 36978 ft | 449 kts | 223° |
| 2026-04-28 21:27 | 34.28674 | -8.93987 | 36972 ft | 450 kts | 223° |
| 2026-04-28 21:27 | 34.23769 | -8.98707 | 36967 ft | 450 kts | 222° |
| 2026-04-28 21:28 | 34.18858 | -9.03405 | 36960 ft | 450 kts | 222° |
| 2026-04-28 21:28 | 34.13952 | -9.08088 | 36919 ft | 449 kts | 222° |
| 2026-04-28 21:29 | 34.09057 | -9.12754 | 36949 ft | 448 kts | 223° |
| 2026-04-28 21:29 | 34.04192 | -9.17387 | 36956 ft | 447 kts | 223° |
| 2026-04-28 21:30 | 33.99298 | -9.22040 | 36962 ft | 447 kts | 223° |
| 2026-04-28 21:30 | 33.94415 | -9.26676 | 36964 ft | 447 kts | 222° |
| 2026-04-28 21:31 | 33.89534 | -9.31304 | 36960 ft | 447 kts | 222° |
| 2026-04-28 21:31 | 33.84646 | -9.35930 | 36954 ft | 446 kts | 222° |
| 2026-04-28 21:32 | 33.79766 | -9.40542 | 36961 ft | 446 kts | 222° |
| 2026-04-28 21:32 | 33.74904 | -9.45131 | 36967 ft | 446 kts | 222° |
| 2026-04-28 21:33 | 33.70013 | -9.49739 | 36961 ft | 446 kts | 223° |
| 2026-04-28 21:33 | 33.65121 | -9.54342 | 36972 ft | 446 kts | 223° |
| 2026-04-28 21:34 | 33.60235 | -9.58933 | 36964 ft | 447 kts | 223° |
| 2026-04-28 21:34 | 33.55370 | -9.63498 | 36959 ft | 447 kts | 223° |
| 2026-04-28 21:35 | 33.50473 | -9.68084 | 36976 ft | 447 kts | 223° |
| 2026-04-28 21:35 | 33.45576 | -9.72665 | 36969 ft | 447 kts | 223° |
| 2026-04-28 21:36 | 33.40674 | -9.77244 | 36975 ft | 447 kts | 223° |
| 2026-04-28 21:36 | 33.35770 | -9.81818 | 36971 ft | 447 kts | 223° |
| 2026-04-28 21:37 | 33.30867 | -9.86383 | 36968 ft | 447 kts | 223° |
| 2026-04-28 21:37 | 33.25960 | -9.90946 | 36965 ft | 446 kts | 223° |
| 2026-04-28 21:38 | 33.21055 | -9.95502 | 36978 ft | 446 kts | 223° |
| 2026-04-28 21:38 | 33.16151 | -10.00049 | 36970 ft | 446 kts | 223° |
| 2026-04-28 21:39 | 33.11254 | -10.04583 | 36985 ft | 445 kts | 223° |
| 2026-04-28 21:39 | 33.06390 | -10.09083 | 36975 ft | 445 kts | 223° |
| 2026-04-28 21:40 | 33.01491 | -10.13606 | 36973 ft | 445 kts | 223° |
| 2026-04-28 21:40 | 32.96596 | -10.18114 | 36982 ft | 445 kts | 223° |
| 2026-04-28 21:41 | 32.91700 | -10.22616 | 36972 ft | 444 kts | 223° |
| 2026-04-28 21:41 | 32.86803 | -10.27115 | 36975 ft | 444 kts | 223° |
| 2026-04-28 21:42 | 32.81908 | -10.31606 | 36981 ft | 444 kts | 223° |
| 2026-04-28 21:42 | 32.77020 | -10.36086 | 36987 ft | 444 kts | 223° |
| 2026-04-28 21:43 | 32.72129 | -10.40561 | 36963 ft | 444 kts | 223° |
| 2026-04-28 21:43 | 32.67236 | -10.45031 | 36991 ft | 443 kts | 223° |
| 2026-04-28 21:44 | 32.62341 | -10.49498 | 36980 ft | 443 kts | 223° |
| 2026-04-28 21:44 | 32.57453 | -10.53951 | 36988 ft | 443 kts | 223° |
| 2026-04-28 21:45 | 32.52556 | -10.58407 | 36970 ft | 443 kts | 222° |
| 2026-04-28 21:45 | 32.48488 | -10.62103 | 36999 ft | 443 kts | 222° |
| 2026-04-28 21:46 | 32.42794 | -10.67270 | 36982 ft | 443 kts | 222° |
| 2026-04-28 21:46 | 32.38692 | -10.70987 | 36988 ft | 443 kts | 222° |
| 2026-04-28 21:47 | 32.33792 | -10.75422 | 36991 ft | 443 kts | 222° |
| 2026-04-28 21:47 | 32.28891 | -10.79850 | 36992 ft | 443 kts | 222° |
| 2026-04-28 21:48 | 32.24022 | -10.84244 | 36993 ft | 444 kts | 222° |
| 2026-04-28 21:48 | 32.19107 | -10.88674 | 36997 ft | 444 kts | 222° |
| 2026-04-28 21:49 | 32.14190 | -10.93099 | 36983 ft | 444 kts | 222° |
| 2026-04-28 21:49 | 32.09270 | -10.97520 | 37005 ft | 443 kts | 222° |
| 2026-04-28 21:50 | 32.04394 | -11.01896 | 37003 ft | 443 kts | 222° |
| 2026-04-28 21:50 | 31.99481 | -11.06300 | 36989 ft | 444 kts | 222° |
| 2026-04-28 21:51 | 31.94560 | -11.10704 | 37001 ft | 443 kts | 222° |
| 2026-04-28 21:51 | 31.89647 | -11.15096 | 36998 ft | 444 kts | 222° |
| 2026-04-28 21:52 | 31.84725 | -11.19490 | 36987 ft | 444 kts | 222° |
| 2026-04-28 21:52 | 31.79833 | -11.23851 | 36996 ft | 443 kts | 222° |
| 2026-04-28 21:53 | 31.74916 | -11.28229 | 37006 ft | 443 kts | 222° |
| 2026-04-28 21:53 | 31.69998 | -11.32608 | 36991 ft | 443 kts | 221° |
| 2026-04-28 21:54 | 31.65083 | -11.36984 | 37008 ft | 443 kts | 221° |
| 2026-04-28 21:54 | 31.60169 | -11.41354 | 37001 ft | 443 kts | 221° |
| 2026-04-28 21:55 | 31.55256 | -11.45718 | 36990 ft | 443 kts | 221° |
| 2026-04-28 21:55 | 31.50381 | -11.50041 | 37013 ft | 442 kts | 221° |
| 2026-04-28 21:56 | 31.45472 | -11.54389 | 37005 ft | 442 kts | 221° |
| 2026-04-28 21:56 | 31.40559 | -11.58735 | 37006 ft | 442 kts | 221° |
| 2026-04-28 21:57 | 31.35643 | -11.63077 | 37013 ft | 442 kts | 221° |
| 2026-04-28 21:57 | 31.30724 | -11.67416 | 37006 ft | 442 kts | 221° |
| 2026-04-28 21:58 | 31.25811 | -11.71744 | 36985 ft | 442 kts | 221° |
| 2026-04-28 21:58 | 31.20901 | -11.76064 | 37005 ft | 441 kts | 221° |
| 2026-04-28 21:59 | 31.15989 | -11.80380 | 37009 ft | 441 kts | 221° |
| 2026-04-28 22:00 | 31.08659 | -11.86809 | 37014 ft | 441 kts | 221° |
| 2026-04-28 22:00 | 31.03752 | -11.91107 | 37012 ft | 441 kts | 221° |
| 2026-04-28 22:01 | 30.98842 | -11.95401 | 37022 ft | 441 kts | 221° |
| 2026-04-28 22:01 | 30.93934 | -11.99688 | 37001 ft | 440 kts | 221° |
| 2026-04-28 22:02 | 30.89029 | -12.03966 | 37019 ft | 440 kts | 221° |
| 2026-04-28 22:02 | 30.84162 | -12.08205 | 37010 ft | 440 kts | 221° |
| 2026-04-28 22:03 | 30.79269 | -12.12462 | 37019 ft | 439 kts | 221° |
| 2026-04-28 22:03 | 30.74377 | -12.16713 | 37013 ft | 439 kts | 221° |
| 2026-04-28 22:04 | 30.69483 | -12.20960 | 37020 ft | 439 kts | 221° |
| 2026-04-28 22:04 | 30.64592 | -12.25199 | 37004 ft | 438 kts | 220° |
| 2026-04-28 22:05 | 30.59704 | -12.29430 | 37022 ft | 438 kts | 220° |
| 2026-04-28 22:05 | 30.54818 | -12.33656 | 37016 ft | 438 kts | 220° |
| 2026-04-28 22:06 | 30.49933 | -12.37873 | 37018 ft | 437 kts | 220° |
| 2026-04-28 22:06 | 30.45079 | -12.42044 | 37019 ft | 437 kts | 220° |
| 2026-04-28 22:07 | 30.41828 | -12.44833 | 37016 ft | 437 kts | 220° |
| 2026-04-28 22:07 | 30.36936 | -12.49026 | 37021 ft | 437 kts | 220° |
| 2026-04-28 22:08 | 30.32049 | -12.53212 | 37009 ft | 437 kts | 220° |
| 2026-04-28 22:08 | 30.27167 | -12.57389 | 37022 ft | 436 kts | 220° |
| 2026-04-28 22:09 | 30.22281 | -12.61565 | 37014 ft | 436 kts | 220° |
| 2026-04-28 22:09 | 30.17391 | -12.65739 | 37023 ft | 436 kts | 220° |
| 2026-04-28 22:10 | 30.12529 | -12.69885 | 37017 ft | 437 kts | 220° |
| 2026-04-28 22:10 | 30.07687 | -12.74112 | 37011 ft | 436 kts | 223° |
| 2026-04-28 22:11 | 30.03002 | -12.78549 | 37026 ft | 435 kts | 223° |
| 2026-04-28 22:11 | 29.98337 | -12.83010 | 37026 ft | 435 kts | 223° |
| 2026-04-28 22:12 | 29.93658 | -12.87439 | 37021 ft | 435 kts | 223° |
| 2026-04-28 22:12 | 29.88949 | -12.91838 | 37030 ft | 435 kts | 223° |
| 2026-04-28 22:13 | 29.84260 | -12.96189 | 37024 ft | 436 kts | 223° |
| 2026-04-28 22:13 | 29.79554 | -13.00583 | 37031 ft | 435 kts | 223° |
| 2026-04-28 22:14 | 29.74855 | -13.05003 | 37012 ft | 435 kts | 223° |
| 2026-04-28 22:14 | 29.70162 | -13.09404 | 37033 ft | 435 kts | 223° |
| 2026-04-28 22:15 | 29.65444 | -13.13785 | 37017 ft | 435 kts | 222° |
| 2026-04-28 22:15 | 29.60724 | -13.18149 | 37038 ft | 435 kts | 222° |
| 2026-04-28 22:16 | 29.56047 | -13.22494 | 37030 ft | 435 kts | 222° |
| 2026-04-28 22:16 | 29.51344 | -13.26888 | 37032 ft | 435 kts | 223° |
| 2026-04-28 22:17 | 29.46657 | -13.31279 | 37034 ft | 435 kts | 222° |
| 2026-04-28 22:17 | 29.41964 | -13.35650 | 37018 ft | 435 kts | 222° |
| 2026-04-28 22:18 | 29.37291 | -13.39981 | 37037 ft | 434 kts | 222° |
| 2026-04-28 22:18 | 29.32582 | -13.44334 | 37028 ft | 435 kts | 222° |
| 2026-04-28 22:19 | 29.27874 | -13.48681 | 37038 ft | 435 kts | 222° |
| 2026-04-28 22:19 | 29.23158 | -13.53030 | 37043 ft | 435 kts | 221° |
| 2026-04-28 22:20 | 29.18439 | -13.57377 | 37041 ft | 435 kts | 221° |
| 2026-04-28 22:20 | 29.13722 | -13.61717 | 37041 ft | 435 kts | 221° |
| 2026-04-28 22:21 | 29.09002 | -13.66054 | 37048 ft | 435 kts | 221° |
| 2026-04-28 22:21 | 29.04303 | -13.70367 | 37035 ft | 436 kts | 221° |
| 2026-04-28 22:22 | 28.99571 | -13.74705 | 37043 ft | 436 kts | 221° |
| 2026-04-28 22:22 | 28.94831 | -13.79045 | 37056 ft | 436 kts | 221° |
| 2026-04-28 22:23 | 28.90085 | -13.83385 | 37031 ft | 437 kts | 221° |
| 2026-04-28 22:23 | 28.85334 | -13.87725 | 37054 ft | 437 kts | 221° |
| 2026-04-28 22:24 | 28.80593 | -13.92050 | 37027 ft | 436 kts | 221° |
| 2026-04-28 22:24 | 28.75882 | -13.96342 | 37028 ft | 436 kts | 221° |
| 2026-04-28 22:25 | 28.71145 | -14.00653 | 37048 ft | 435 kts | 221° |
| 2026-04-28 22:25 | 28.66414 | -14.04954 | 37027 ft | 435 kts | 221° |
| 2026-04-28 22:26 | 28.61681 | -14.09251 | 37042 ft | 435 kts | 221° |
| 2026-04-28 22:26 | 28.56950 | -14.13542 | 37033 ft | 434 kts | 221° |
| 2026-04-28 22:27 | 28.52223 | -14.17824 | 37030 ft | 434 kts | 221° |
| 2026-04-28 22:27 | 28.47491 | -14.22105 | 37026 ft | 434 kts | 221° |
| 2026-04-28 22:28 | 28.42769 | -14.26372 | 37036 ft | 433 kts | 221° |
| 2026-04-28 22:28 | 28.38077 | -14.30607 | 37037 ft | 433 kts | 221° |
| 2026-04-28 22:29 | 28.33362 | -14.34859 | 37037 ft | 433 kts | 221° |
| 2026-04-28 22:29 | 28.28637 | -14.39113 | 37036 ft | 433 kts | 221° |
| 2026-04-28 22:30 | 28.23919 | -14.43357 | 37034 ft | 433 kts | 221° |
| 2026-04-28 22:30 | 28.19190 | -14.47606 | 37041 ft | 433 kts | 221° |
| 2026-04-28 22:31 | 28.14465 | -14.51847 | 37036 ft | 433 kts | 221° |
| 2026-04-28 22:31 | 28.09772 | -14.56055 | 37042 ft | 432 kts | 221° |
| 2026-04-28 22:32 | 28.05052 | -14.60282 | 37041 ft | 432 kts | 221° |
| 2026-04-28 22:32 | 28.00669 | -14.64852 | 36990 ft | 426 kts | 239° |
| 2026-04-28 22:32 | 27.99309 | -14.67786 | 37043 ft | 421 kts | 251° |
| 2026-04-28 22:33 | 27.98532 | -14.70966 | 37162 ft | 416 kts | 257° |
| 2026-04-28 22:33 | 27.97867 | -14.74164 | 37052 ft | 419 kts | 258° |
| 2026-04-28 22:33 | 27.97422 | -14.76333 | 37066 ft | 419 kts | 258° |
| 2026-04-28 22:34 | 27.96091 | -14.82724 | 37055 ft | 420 kts | 257° |
| 2026-04-28 22:34 | 27.94707 | -14.89191 | 36368 ft | 427 kts | 257° |
| 2026-04-28 22:34 | 27.94006 | -14.92426 | 35978 ft | 420 kts | 257° |
| 2026-04-28 22:35 | 27.93308 | -14.95631 | 35497 ft | 419 kts | 257° |
| 2026-04-28 22:35 | 27.92608 | -14.98839 | 35049 ft | 422 kts | 257° |
| 2026-04-28 22:35 | 27.91899 | -15.02091 | 34548 ft | 431 kts | 257° |
| 2026-04-28 22:35 | 27.91173 | -15.05412 | 34026 ft | 438 kts | 256° |
| 2026-04-28 22:36 | 27.90436 | -15.08784 | 33313 ft | 443 kts | 256° |
| 2026-04-28 22:36 | 27.89704 | -15.12126 | 32639 ft | 444 kts | 256° |
| 2026-04-28 22:36 | 27.88959 | -15.15523 | 31949 ft | 446 kts | 256° |
| 2026-04-28 22:36 | 27.88211 | -15.18932 | 31306 ft | 448 kts | 256° |
| 2026-04-28 22:37 | 27.87457 | -15.22361 | 30662 ft | 450 kts | 256° |
| 2026-04-28 22:37 | 27.86700 | -15.25803 | 30008 ft | 454 kts | 256° |
| 2026-04-28 22:37 | 27.85932 | -15.29289 | 29217 ft | 460 kts | 256° |
| 2026-04-28 22:37 | 27.85153 | -15.32821 | 28442 ft | 464 kts | 256° |
| 2026-04-28 22:38 | 27.84371 | -15.36364 | 27695 ft | 465 kts | 256° |
| 2026-04-28 22:38 | 27.83592 | -15.39920 | 26959 ft | 465 kts | 257° |
| 2026-04-28 22:38 | 27.83099 | -15.43532 | 26174 ft | 466 kts | 265° |
| 2026-04-28 22:38 | 27.83082 | -15.47192 | 25500 ft | 466 kts | 274° |
| 2026-04-28 22:39 | 27.83407 | -15.50787 | 24891 ft | 464 kts | 276° |
| 2026-04-28 22:39 | 27.83760 | -15.54403 | 24212 ft | 463 kts | 276° |
| 2026-04-28 22:39 | 27.84108 | -15.58017 | 23547 ft | 461 kts | 276° |
| 2026-04-28 22:39 | 27.84441 | -15.61588 | 22772 ft | 453 kts | 275° |
| 2026-04-28 22:40 | 27.84757 | -15.65100 | 22022 ft | 444 kts | 275° |
| 2026-04-28 22:40 | 27.85058 | -15.68530 | 21290 ft | 436 kts | 275° |
| 2026-04-28 22:40 | 27.85350 | -15.71916 | 20573 ft | 430 kts | 275° |
| 2026-04-28 22:40 | 27.85636 | -15.75263 | 19878 ft | 425 kts | 275° |
| 2026-04-28 22:41 | 27.85918 | -15.78576 | 19191 ft | 421 kts | 275° |
| 2026-04-28 22:41 | 27.86198 | -15.81861 | 18543 ft | 418 kts | 275° |
| 2026-04-28 22:41 | 27.86475 | -15.85123 | 17809 ft | 415 kts | 275° |
| 2026-04-28 22:41 | 27.86749 | -15.88355 | 17069 ft | 412 kts | 275° |
| 2026-04-28 22:42 | 27.87021 | -15.91569 | 16339 ft | 409 kts | 275° |
| 2026-04-28 22:42 | 27.87290 | -15.94761 | 15630 ft | 407 kts | 275° |
| 2026-04-28 22:42 | 27.87556 | -15.97929 | 14936 ft | 404 kts | 275° |
| 2026-04-28 22:42 | 27.87820 | -16.01077 | 14258 ft | 397 kts | 275° |
| 2026-04-28 22:43 | 27.88075 | -16.04118 | 13610 ft | 380 kts | 275° |
| 2026-04-28 22:43 | 27.88316 | -16.07004 | 12929 ft | 366 kts | 275° |
| 2026-04-28 22:43 | 27.88550 | -16.09821 | 12241 ft | 355 kts | 275° |
| 2026-04-28 22:43 | 27.88778 | -16.12571 | 11585 ft | 345 kts | 275° |
| 2026-04-28 22:44 | 27.88999 | -16.15242 | 10956 ft | 338 kts | 275° |
| 2026-04-28 22:44 | 27.89211 | -16.17799 | 10916 ft | 313 kts | 276° |
| 2026-04-28 22:44 | 27.89408 | -16.20187 | 10702 ft | 298 kts | 276° |
| 2026-04-28 22:44 | 27.89594 | -16.22452 | 10569 ft | 282 kts | 276° |
| 2026-04-28 22:45 | 27.89773 | -16.24623 | 10422 ft | 274 kts | 276° |
| 2026-04-28 22:45 | 27.89839 | -16.26751 | 10211 ft | 271 kts | 262° |
| 2026-04-28 22:45 | 27.89225 | -16.28789 | 9795 ft | 277 kts | 247° |
| 2026-04-28 22:45 | 27.88462 | -16.30770 | 9367 ft | 280 kts | 248° |
| 2026-04-28 22:46 | 27.87700 | -16.32782 | 9127 ft | 275 kts | 248° |
| 2026-04-28 22:46 | 27.86946 | -16.34785 | 9122 ft | 277 kts | 248° |
| 2026-04-28 22:46 | 27.86191 | -16.36795 | 9065 ft | 277 kts | 248° |
| 2026-04-28 22:46 | 27.85446 | -16.38783 | 9076 ft | 273 kts | 248° |
| 2026-04-28 22:47 | 27.84697 | -16.40780 | 8816 ft | 280 kts | 248° |
| 2026-04-28 22:47 | 27.83939 | -16.42804 | 8640 ft | 277 kts | 248° |
| 2026-04-28 22:47 | 27.83190 | -16.44801 | 8364 ft | 275 kts | 248° |
| 2026-04-28 22:47 | 27.82447 | -16.46783 | 8123 ft | 272 kts | 248° |
| 2026-04-28 22:48 | 27.81713 | -16.48737 | 7879 ft | 269 kts | 248° |
| 2026-04-28 22:48 | 27.80985 | -16.50675 | 7631 ft | 266 kts | 248° |
| 2026-04-28 22:48 | 27.80265 | -16.52590 | 7384 ft | 264 kts | 248° |
| 2026-04-28 22:48 | 27.79560 | -16.54467 | 7141 ft | 262 kts | 248° |
| 2026-04-28 22:49 | 27.78848 | -16.56358 | 6924 ft | 260 kts | 248° |
| 2026-04-28 22:49 | 27.78144 | -16.58231 | 6677 ft | 259 kts | 248° |
| 2026-04-28 22:49 | 27.77443 | -16.60094 | 6436 ft | 257 kts | 248° |
| 2026-04-28 22:49 | 27.76743 | -16.61955 | 6184 ft | 257 kts | 248° |
| 2026-04-28 22:50 | 27.76051 | -16.63791 | 6010 ft | 256 kts | 248° |
| 2026-04-28 22:50 | 27.75356 | -16.65634 | 5998 ft | 256 kts | 248° |
| 2026-04-28 22:50 | 27.74655 | -16.67503 | 5989 ft | 259 kts | 250° |
| 2026-04-28 22:50 | 27.74393 | -16.69500 | 5959 ft | 258 kts | 279° |
| 2026-04-28 22:51 | 27.75047 | -16.71369 | 5999 ft | 261 kts | 304° |
| 2026-04-28 22:51 | 27.76286 | -16.72881 | 6018 ft | 263 kts | 317° |
| 2026-04-28 22:51 | 27.77650 | -16.74286 | 5795 ft | 269 kts | 317° |
| 2026-04-28 22:51 | 27.79037 | -16.75704 | 5557 ft | 266 kts | 317° |
| 2026-04-28 22:52 | 27.80395 | -16.77106 | 5299 ft | 263 kts | 317° |
| 2026-04-28 22:52 | 27.81731 | -16.78499 | 5054 ft | 260 kts | 317° |
| 2026-04-28 22:52 | 27.83053 | -16.79884 | 4805 ft | 258 kts | 317° |
| 2026-04-28 22:52 | 27.84361 | -16.81258 | 4547 ft | 256 kts | 317° |
| 2026-04-28 22:53 | 27.85646 | -16.82599 | 4285 ft | 254 kts | 320° |
| 2026-04-28 22:53 | 27.87168 | -16.83594 | 3991 ft | 253 kts | 339° |
| 2026-04-28 22:53 | 27.88787 | -16.84307 | 3797 ft | 249 kts | 338° |
| 2026-04-28 22:53 | 27.90390 | -16.85043 | 3535 ft | 248 kts | 338° |
| 2026-04-28 22:54 | 27.92049 | -16.85499 | 3208 ft | 248 kts | 2° |
| 2026-04-28 22:54 | 27.93661 | -16.84919 | 3057 ft | 241 kts | 34° |
| 2026-04-28 22:54 | 27.94800 | -16.83612 | 3037 ft | 231 kts | 58° |
| 2026-04-28 22:54 | 27.95627 | -16.82059 | 3039 ft | 232 kts | 57° |
| 2026-04-28 22:55 | 27.96402 | -16.80481 | 2972 ft | 225 kts | 66° |
| 2026-04-28 22:55 | 27.96967 | -16.78908 | 2999 ft | 205 kts | 69° |
| 2026-04-28 22:55 | 27.97453 | -16.77471 | 2969 ft | 189 kts | 69° |
| 2026-04-28 22:55 | 27.97924 | -16.76092 | 3004 ft | 187 kts | 69° |
| 2026-04-28 22:56 | 27.98393 | -16.74732 | 3011 ft | 189 kts | 69° |
| 2026-04-28 22:56 | 27.98873 | -16.73343 | 2909 ft | 191 kts | 69° |
| 2026-04-28 22:56 | 27.99360 | -16.71937 | 2676 ft | 191 kts | 69° |
| 2026-04-28 22:56 | 27.99831 | -16.70574 | 2427 ft | 180 kts | 68° |
| 2026-04-28 22:57 | 28.00273 | -16.69295 | 2187 ft | 169 kts | 68° |
| 2026-04-28 22:57 | 28.00693 | -16.68086 | 1990 ft | 162 kts | 67° |
| 2026-04-28 22:57 | 28.01099 | -16.66913 | 1768 ft | 158 kts | 68° |
| 2026-04-28 22:57 | 28.01502 | -16.65749 | 1561 ft | 156 kts | 68° |
| 2026-04-28 22:58 | 28.01887 | -16.64639 | 1332 ft | 147 kts | 68° |
| 2026-04-28 22:58 | 28.02249 | -16.63596 | 1168 ft | 141 kts | 68° |
| 2026-04-28 22:58 | 28.02596 | -16.62569 | 999 ft | 141 kts | 69° |
| 2026-04-28 22:58 | 28.02954 | -16.61538 | 745 ft | 142 kts | 70° |
| 2026-04-28 22:59 | 28.03310 | -16.60521 | 606 ft | 138 kts | 70° |
| 2026-04-28 22:59 | 28.03663 | -16.59475 | 417 ft | 144 kts | 69° |
| 2026-04-28 22:59 | 28.04031 | -16.58452 | 220 ft | 132 kts | 70° |
| 2026-04-28 22:59 | 28.04326 | -16.57578 | 209 ft | 105 kts | 70° |
| 2026-04-28 23:00 | 28.04564 | -16.56919 | 198 ft | 70 kts | 68° |
| 2026-04-28 23:00 | 28.04719 | -16.56544 | 210 ft | 47 kts | 47° |
| 2026-04-28 23:00 | 28.04892 | -16.56361 | 220 ft | 19 kts | 41° |
| 2026-04-28 23:00 | 28.04944 | -16.56388 | 218 ft | 10 kts | 264° |
| 2026-04-28 23:01 | 28.04916 | -16.56462 | 218 ft | 10 kts | 247° |
| 2026-04-28 23:01 | 28.04890 | -16.56534 | 222 ft | 10 kts | 248° |
| 2026-04-28 23:01 | 28.04876 | -16.56571 | 221 ft | 10 kts | 249° |
| 2026-04-28 23:01 | 28.04851 | -16.56646 | 222 ft | 12 kts | 249° |
| 2026-04-28 23:02 | 28.04815 | -16.56749 | 220 ft | 16 kts | 248° |
| 2026-04-28 23:02 | 28.04767 | -16.56885 | 218 ft | 20 kts | 248° |
| 2026-04-28 23:02 | 28.04715 | -16.57032 | 222 ft | 20 kts | 248° |
| 2026-04-28 23:02 | 28.04708 | -16.57152 | 222 ft | 16 kts | 310° |
| 2026-04-28 23:03 | 28.04780 | -16.57220 | 223 ft | 14 kts | 272° |
| 2026-04-28 23:03 | 28.04750 | -16.57319 | 224 ft | 13 kts | 249° |
| 2026-04-28 23:03 | 28.04718 | -16.57413 | 224 ft | 13 kts | 248° |
| 2026-04-28 23:03 | 28.04681 | -16.57503 | 223 ft | 12 kts | 244° |
| 2026-04-28 23:04 | 28.04656 | -16.57578 | 223 ft | 6 kts | 255° |
| 2026-04-28 23:04 | 28.04712 | -16.57622 | 225 ft | 4 kts | 339° |
| 2026-04-28 23:04 | 28.04721 | -16.57626 | 226 ft | 2 kts | 337° |
| 2026-04-28 23:05 | 28.04729 | -16.57630 | 226 ft | 0 kts | 338° |